createdAt,value
2019-01-05T00:01:43.876Z,15.70
2019-01-05T00:04:30.714Z,17.80
2019-01-05T00:07:18.059Z,17.23
2019-01-05T00:10:05.415Z,18.13
2019-01-05T00:12:53.320Z,17.73
2019-01-05T00:15:48.244Z,17.13
2019-01-05T00:18:45.277Z,16.37
2019-01-05T00:21:45.865Z,16.30
2019-01-05T00:24:33.121Z,15.73
2019-01-05T00:27:21.512Z,17.40
2019-01-05T00:30:15.731Z,15.57
2019-01-05T00:32:55.810Z,15.40
2019-01-05T00:36:06.241Z,15.53
2019-01-05T00:38:56.472Z,15.17
2019-01-05T00:41:43.735Z,15.37
2019-01-05T00:44:32.660Z,15.70
2019-01-05T00:47:24.415Z,16.20
2019-01-05T00:50:08.967Z,15.63
2019-01-05T00:52:53.593Z,17.00
2019-01-05T00:55:42.691Z,15.90
2019-01-05T00:58:30.402Z,16.87
2019-01-05T01:01:21.429Z,16.97
2019-01-05T01:04:08.654Z,16.67
2019-01-05T01:07:09.677Z,16.07
2019-01-05T01:09:56.999Z,17.10
2019-01-05T01:12:44.017Z,16.70
2019-01-05T01:15:32.651Z,16.80
2019-01-05T01:18:13.942Z,16.17
2019-01-05T01:21:05.065Z,17.50
2019-01-05T01:23:59.777Z,15.73
2019-01-05T01:27:07.551Z,18.67
2019-01-05T01:29:54.830Z,17.03
2019-01-05T01:32:46.494Z,17.20
2019-01-05T01:35:33.922Z,17.33
2019-01-05T01:38:47.392Z,17.77
2019-01-05T01:41:45.117Z,16.77
2019-01-05T01:44:46.063Z,18.80
2019-01-05T01:47:37.992Z,18.33
2019-01-05T01:50:32.545Z,17.73
2019-01-05T01:53:26.202Z,19.10
2019-01-05T01:56:21.410Z,18.20
2019-01-05T01:59:19.380Z,18.73
2019-01-05T02:02:09.452Z,19.00
2019-01-05T02:05:02.593Z,17.97
2019-01-05T02:08:08.341Z,18.83
2019-01-05T02:11:00.069Z,19.80
2019-01-05T02:13:56.559Z,18.30
2019-01-05T02:16:52.098Z,18.47
2019-01-05T02:20:10.802Z,19.83
2019-01-05T02:23:39.103Z,19.17
2019-01-05T02:27:09.808Z,19.37
2019-01-05T02:30:40.005Z,19.13
2019-01-05T02:37:26.042Z,20.07
2019-01-05T02:41:03.380Z,21.30
2019-01-05T02:44:22.874Z,22.00
2019-01-05T02:48:03.075Z,21.93
2019-01-05T02:51:55.659Z,20.63
2019-01-05T02:55:19.959Z,22.07
2019-01-05T02:58:43.157Z,22.53
2019-01-05T03:02:01.535Z,22.17
2019-01-05T03:05:41.617Z,23.30
2019-01-05T03:09:18.129Z,21.93
2019-01-05T03:12:37.746Z,22.40
2019-01-05T03:16:12.185Z,22.60
2019-01-05T03:19:59.539Z,21.57
2019-01-05T03:23:29.234Z,23.87
2019-01-05T03:27:28.944Z,23.80
2019-01-05T03:30:38.961Z,23.60
2019-01-05T03:34:29.427Z,23.23
2019-01-05T03:37:51.450Z,21.67
2019-01-05T03:41:07.139Z,21.50
2019-01-05T03:44:16.779Z,21.80
2019-01-05T03:47:48.555Z,21.80
2019-01-05T03:51:18.972Z,21.67
2019-01-05T03:54:46.218Z,21.13
2019-01-05T03:58:34.000Z,21.83
2019-01-05T04:02:18.179Z,22.90
2019-01-05T04:05:43.755Z,23.27
2019-01-05T04:08:59.236Z,23.83
2019-01-05T04:12:39.505Z,22.20
2019-01-05T04:15:58.939Z,21.87
2019-01-05T04:19:19.246Z,22.53
2019-01-05T04:23:11.668Z,22.00
2019-01-05T04:26:39.922Z,22.60
2019-01-05T04:30:08.511Z,23.40
2019-01-05T04:33:55.431Z,23.33
2019-01-05T04:37:31.692Z,22.77
2019-01-05T04:41:19.285Z,23.90
2019-01-05T04:44:38.704Z,24.33
2019-01-05T04:48:32.981Z,24.87
2019-01-05T04:52:02.120Z,24.17
2019-01-05T04:55:33.786Z,25.83
2019-01-05T04:58:44.150Z,24.37
2019-01-05T05:02:13.587Z,25.50
2019-01-05T05:05:51.168Z,25.13
2019-01-05T05:09:23.006Z,23.43
2019-01-05T05:13:11.106Z,24.50
2019-01-05T05:16:47.714Z,22.97
2019-01-05T05:20:13.175Z,26.57
2019-01-05T05:23:26.627Z,25.63
2019-01-05T05:26:44.347Z,26.00
2019-01-05T05:30:26.629Z,25.73
2019-01-05T05:34:07.877Z,25.70
2019-01-05T05:37:37.850Z,25.57
2019-01-05T05:41:12.803Z,26.27
2019-01-05T05:44:30.451Z,26.30
2019-01-05T05:47:52.006Z,25.33
2019-01-05T05:51:37.276Z,26.40
2019-01-05T05:55:07.560Z,23.37
2019-01-05T05:58:39.967Z,26.30
2019-01-05T06:02:27.084Z,24.77
2019-01-05T06:06:22.891Z,23.60
2019-01-05T06:09:25.509Z,24.73
2019-01-05T06:13:00.136Z,25.50
2019-01-05T06:16:38.222Z,24.50
2019-01-05T06:20:31.725Z,24.27
2019-01-05T06:24:08.940Z,22.17
2019-01-05T06:27:44.638Z,21.50
2019-01-05T06:31:07.399Z,21.33
2019-01-05T06:34:24.849Z,21.87
2019-01-05T06:37:43.367Z,21.87
2019-01-05T06:41:16.507Z,22.90
2019-01-05T06:44:53.626Z,21.37
2019-01-05T06:48:30.557Z,21.10
2019-01-05T06:52:02.195Z,19.57
2019-01-05T06:55:22.980Z,18.77
2019-01-05T07:02:52.186Z,17.00
2019-01-05T07:06:17.874Z,17.03
2019-01-05T07:09:47.075Z,16.07
2019-01-05T07:12:59.582Z,16.30
2019-01-05T07:16:34.567Z,15.37
2019-01-05T07:20:07.366Z,13.67
2019-01-05T07:23:35.599Z,13.80
2019-01-05T07:27:04.517Z,12.47
2019-01-05T07:30:40.837Z,11.70
2019-01-05T07:34:14.382Z,12.03
2019-01-05T07:38:07.500Z,11.73
2019-01-05T07:41:35.785Z,12.20
2019-01-05T07:44:49.070Z,11.83
2019-01-05T07:48:12.266Z,11.03
2019-01-05T07:52:02.519Z,10.97
2019-01-05T07:55:40.343Z,9.97
2019-01-05T07:59:20.734Z,10.40
2019-01-05T08:03:10.820Z,9.63
2019-01-05T08:07:12.331Z,9.53
2019-01-05T08:10:41.351Z,9.23
2019-01-05T08:14:02.348Z,8.53
2019-01-05T08:17:30.308Z,8.77
2019-01-05T08:21:19.797Z,8.10
2019-01-05T08:24:51.915Z,7.87
2019-01-05T08:28:25.610Z,8.03
2019-01-05T08:31:59.641Z,9.07
2019-01-05T08:35:45.332Z,8.03
2019-01-05T08:39:34.089Z,7.30
2019-01-05T08:43:11.102Z,6.73
2019-01-05T08:46:38.224Z,7.50
2019-01-05T08:50:12.133Z,7.47
2019-01-05T08:53:43.858Z,7.40
2019-01-05T08:57:21.126Z,6.57
2019-01-05T09:00:38.608Z,6.80
2019-01-05T09:04:11.908Z,6.53
2019-01-05T09:07:37.305Z,5.73
2019-01-05T09:11:00.602Z,5.97
2019-01-05T09:14:24.691Z,6.17
2019-01-05T09:17:51.429Z,5.13
2019-01-05T09:21:57.713Z,5.30
2019-01-05T09:25:34.820Z,4.70
2019-01-05T09:32:38.737Z,4.40
2019-01-05T09:36:16.788Z,4.20
2019-01-05T09:39:51.685Z,3.87
2019-01-05T09:43:17.175Z,3.60
2019-01-05T09:46:44.064Z,3.80
2019-01-05T09:50:40.452Z,3.40
2019-01-05T09:54:17.943Z,3.40
2019-01-05T09:57:57.889Z,3.20
2019-01-05T10:01:48.586Z,2.93
2019-01-05T10:05:26.540Z,3.10
2019-01-05T10:08:51.530Z,3.27
2019-01-05T10:12:27.246Z,3.57
2019-01-05T10:16:07.527Z,3.47
2019-01-05T10:19:38.997Z,3.70
2019-01-05T10:23:02.223Z,3.80
2019-01-05T10:26:40.851Z,3.57
2019-01-05T10:30:06.760Z,3.50
2019-01-05T10:33:31.761Z,2.77
2019-01-05T10:37:05.013Z,3.17
2019-01-05T10:40:31.627Z,3.40
2019-01-05T10:43:54.945Z,3.37
2019-01-05T10:47:35.708Z,3.87
2019-01-05T10:51:14.589Z,3.60
2019-01-05T10:54:40.337Z,3.60
2019-01-05T10:58:04.164Z,3.50
2019-01-05T11:01:41.347Z,3.37
2019-01-05T11:05:12.112Z,3.40
2019-01-05T11:08:44.958Z,4.57
2019-01-05T11:12:15.364Z,3.50
2019-01-05T11:15:46.539Z,4.17
2019-01-05T11:19:09.165Z,3.33
2019-01-05T11:22:34.290Z,3.50
2019-01-05T11:25:46.065Z,3.63
2019-01-05T11:29:09.037Z,3.57
2019-01-05T11:32:33.281Z,3.77
2019-01-05T11:36:02.234Z,3.97
2019-01-05T11:39:29.172Z,3.80
2019-01-05T11:43:21.468Z,3.97
2019-01-05T11:46:49.744Z,4.33
2019-01-05T11:50:25.222Z,9.03
2019-01-05T11:54:16.607Z,3.43
2019-01-05T11:57:43.408Z,3.83
2019-01-05T12:01:04.574Z,4.10
2019-01-05T12:04:28.632Z,3.90
2019-01-05T12:07:46.413Z,3.27
2019-01-05T12:11:25.820Z,3.50
2019-01-05T12:15:15.255Z,3.10
2019-01-05T12:18:42.936Z,3.33
2019-01-05T12:22:21.589Z,4.03
2019-01-05T12:25:54.625Z,3.23
2019-01-05T12:29:34.808Z,3.90
2019-01-05T12:33:02.202Z,3.50
2019-01-05T12:36:29.173Z,4.00
2019-01-05T12:39:53.441Z,3.77
2019-01-05T12:43:37.269Z,3.90
2019-01-05T12:47:22.493Z,4.67
2019-01-05T12:50:55.534Z,4.50
2019-01-05T12:54:36.653Z,4.60
2019-01-05T12:58:09.345Z,4.23
2019-01-05T13:01:31.478Z,5.20
2019-01-05T13:05:18.113Z,4.33
2019-01-05T13:08:52.246Z,5.83
2019-01-05T13:12:15.892Z,4.47
2019-01-05T13:15:50.287Z,5.40
2019-01-05T13:19:13.441Z,5.50
2019-01-05T13:22:44.529Z,5.63
2019-01-05T13:28:58.746Z,7.30
2019-01-05T13:32:37.923Z,7.40
2019-01-05T13:36:08.958Z,7.90
2019-01-05T13:39:30.902Z,7.97
2019-01-05T13:42:51.620Z,8.53
2019-01-05T13:46:19.277Z,8.87
2019-01-05T13:49:52.696Z,9.17
2019-01-05T13:53:12.839Z,8.90
2019-01-05T13:56:09.743Z,9.37
2019-01-05T13:58:57.295Z,10.07
2019-01-05T14:01:58.194Z,10.80
2019-01-05T14:04:41.655Z,10.23
2019-01-05T14:07:29.910Z,9.97
2019-01-05T14:10:27.351Z,9.77
2019-01-05T14:13:14.564Z,9.20
2019-01-05T14:16:11.572Z,9.17
2019-01-05T14:18:58.711Z,9.37
2019-01-05T14:22:05.922Z,9.93
2019-01-05T14:24:53.241Z,9.20
2019-01-05T14:27:59.827Z,10.17
2019-01-05T14:30:46.755Z,9.03
2019-01-05T14:33:50.560Z,10.40
2019-01-05T14:36:50.658Z,10.47
2019-01-05T14:39:54.228Z,9.97
2019-01-05T14:42:41.367Z,9.80
2019-01-05T14:45:28.165Z,9.80
2019-01-05T14:48:29.064Z,10.73
2019-01-05T14:51:16.432Z,9.50
2019-01-05T14:54:07.555Z,9.40
2019-01-05T14:56:54.888Z,9.57
2019-01-05T14:59:52.357Z,9.90
2019-01-05T15:02:39.313Z,10.10
2019-01-05T15:05:28.848Z,10.23
2019-01-05T15:08:15.661Z,9.03
2019-01-05T15:11:02.786Z,10.43
2019-01-05T15:13:57.394Z,9.43
2019-01-05T15:16:45.053Z,10.37
2019-01-05T15:19:33.860Z,9.87
2019-01-05T15:22:40.886Z,11.03
2019-01-05T15:25:28.986Z,10.40
2019-01-05T15:28:17.077Z,9.43
2019-01-05T15:31:04.191Z,10.40
2019-01-05T15:33:51.226Z,10.90
2019-01-05T15:36:38.330Z,10.17
2019-01-05T15:39:25.946Z,10.00
2019-01-05T15:42:13.154Z,10.80
2019-01-05T15:45:00.317Z,9.87
2019-01-05T15:47:40.928Z,10.23
2019-01-05T15:50:23.386Z,10.77
2019-01-05T15:53:10.476Z,10.73
2019-01-05T15:55:54.589Z,11.27
2019-01-05T15:58:41.594Z,11.50
2019-01-05T16:01:28.825Z,12.37
2019-01-05T16:04:15.804Z,12.07
2019-01-05T16:07:04.201Z,11.67
2019-01-05T16:09:56.936Z,12.50
2019-01-05T16:13:00.145Z,13.20
2019-01-05T16:15:47.447Z,13.47
2019-01-05T16:18:35.845Z,14.07
2019-01-05T16:21:30.204Z,14.20
2019-01-05T16:24:18.734Z,14.70
2019-01-05T16:27:02.625Z,15.47
2019-01-05T16:29:49.428Z,15.30
2019-01-05T16:32:49.590Z,14.30
2019-01-05T16:35:38.394Z,14.80
2019-01-05T16:38:29.957Z,13.87
2019-01-05T16:41:17.350Z,14.30
2019-01-05T16:44:03.940Z,15.47
2019-01-05T16:46:51.135Z,14.20
2019-01-05T16:49:38.337Z,13.83
2019-01-05T16:52:24.069Z,14.77
2019-01-05T16:55:12.146Z,14.70
2019-01-05T16:57:59.503Z,14.30
2019-01-05T17:00:48.010Z,14.57
2019-01-05T17:03:36.742Z,14.50
2019-01-05T17:06:24.729Z,14.17
2019-01-05T17:09:18.647Z,13.60
2019-01-05T17:12:06.206Z,14.20
2019-01-05T17:14:53.214Z,14.23
2019-01-05T17:17:40.163Z,14.20
2019-01-05T17:20:27.327Z,14.47
2019-01-05T17:23:14.203Z,13.57
2019-01-05T17:26:01.124Z,14.53
2019-01-05T17:28:55.477Z,15.00
2019-01-05T17:31:33.668Z,15.53
2019-01-05T17:34:15.234Z,14.97
2019-01-05T17:37:03.507Z,13.93
2019-01-05T17:40:07.309Z,14.57
2019-01-05T17:43:09.899Z,13.07
2019-01-05T17:46:02.429Z,13.13
2019-01-05T17:48:49.537Z,12.77
2019-01-05T17:51:47.135Z,13.13
2019-01-05T17:54:30.446Z,13.03
2019-01-05T17:57:17.722Z,13.47
2019-01-05T18:00:06.608Z,12.23
2019-01-05T18:02:54.046Z,13.37
2019-01-05T18:05:41.408Z,13.30
2019-01-05T18:08:21.940Z,13.30
2019-01-05T18:11:08.855Z,13.10
2019-01-05T18:14:00.946Z,13.30
2019-01-05T18:16:47.713Z,13.63
2019-01-05T18:19:34.961Z,14.10
2019-01-05T18:22:21.915Z,14.10
2019-01-05T18:25:09.545Z,12.47
2019-01-05T18:27:56.456Z,13.13
2019-01-05T18:30:43.695Z,14.03
2019-01-05T18:33:31.742Z,13.87
2019-01-05T18:36:30.303Z,14.70
2019-01-05T18:39:27.667Z,14.47
2019-01-05T18:42:20.642Z,14.57
2019-01-05T18:45:07.634Z,14.20
2019-01-05T18:47:56.392Z,18.07
2019-01-05T18:50:42.883Z,19.40
2019-01-05T18:53:29.759Z,17.77
2019-01-05T18:56:31.173Z,16.97
2019-01-05T18:59:17.985Z,15.77
2019-01-05T19:02:24.656Z,17.87
2019-01-05T19:05:06.744Z,14.83
2019-01-05T19:07:53.847Z,15.73
2019-01-05T19:10:41.081Z,14.97
2019-01-05T19:13:28.311Z,15.97
2019-01-05T19:16:32.557Z,15.13
2019-01-05T19:19:19.385Z,14.37
2019-01-05T19:22:06.984Z,13.13
2019-01-05T19:24:54.633Z,14.37
2019-01-05T19:27:36.490Z,13.10
2019-01-05T19:30:25.209Z,13.73
2019-01-05T19:33:12.333Z,13.03
2019-01-05T19:36:00.152Z,12.73
2019-01-05T19:39:00.775Z,11.87
2019-01-05T19:41:47.602Z,11.47
2019-01-05T19:44:48.155Z,12.83
2019-01-05T19:47:39.298Z,21.97
2019-01-05T19:50:27.846Z,14.73
2019-01-05T19:53:14.680Z,11.93
2019-01-05T19:56:14.898Z,13.33
2019-01-05T19:59:06.197Z,12.17
2019-01-05T20:01:53.603Z,12.87
2019-01-05T20:04:40.748Z,12.07
2019-01-05T20:07:37.159Z,13.43
2019-01-05T20:10:39.583Z,11.73
2019-01-05T20:13:26.954Z,10.97
2019-01-05T20:16:27.428Z,11.33
2019-01-05T20:22:21.791Z,10.17
2019-01-05T20:25:08.888Z,10.23
2019-01-05T20:28:05.995Z,11.00
2019-01-05T20:30:52.912Z,10.57
2019-01-05T20:33:40.464Z,10.23
2019-01-05T20:36:27.578Z,9.60
2019-01-05T20:39:20.831Z,11.07
2019-01-05T20:42:23.606Z,10.33
2019-01-05T20:45:11.262Z,11.03
2019-01-05T20:47:58.362Z,10.73
2019-01-05T20:50:55.663Z,10.73
2019-01-05T20:53:48.110Z,10.80
2019-01-05T20:56:36.817Z,10.37
2019-01-05T20:59:39.020Z,10.10
2019-01-05T21:02:26.599Z,10.73
2019-01-05T21:05:28.008Z,10.43
2019-01-05T21:08:05.880Z,11.10
2019-01-05T21:10:53.120Z,9.87
2019-01-05T21:13:37.993Z,10.97
2019-01-05T21:16:32.108Z,10.37
2019-01-05T21:19:32.759Z,10.27
2019-01-05T21:22:19.626Z,10.90
2019-01-05T21:25:08.342Z,10.07
2019-01-05T21:28:08.138Z,10.30
2019-01-05T21:31:00.466Z,9.73
2019-01-05T21:33:47.925Z,9.33
2019-01-05T21:36:45.682Z,9.50
2019-01-05T21:39:28.750Z,10.20
2019-01-05T21:42:27.313Z,9.30
2019-01-05T21:45:18.921Z,8.90
2019-01-05T21:48:09.210Z,8.93
2019-01-05T21:51:06.746Z,9.73
2019-01-05T21:53:58.550Z,9.93
2019-01-05T21:56:52.788Z,9.80
2019-01-05T21:59:41.018Z,8.93
2019-01-05T22:02:28.419Z,9.27
2019-01-05T22:05:25.692Z,9.30
2019-01-05T22:08:12.619Z,9.83
2019-01-05T22:11:19.514Z,9.80
2019-01-05T22:14:08.075Z,9.77
2019-01-05T22:16:59.121Z,10.57
2019-01-05T22:20:05.831Z,10.60
2019-01-05T22:22:57.894Z,10.23
2019-01-05T22:25:46.074Z,9.50
2019-01-05T22:28:31.379Z,10.07
2019-01-05T22:31:19.121Z,10.87
2019-01-05T22:34:07.701Z,10.70
2019-01-05T22:37:05.258Z,11.33
2019-01-05T22:40:18.805Z,11.60
2019-01-05T22:43:19.597Z,13.23
2019-01-05T22:46:13.991Z,11.17
2019-01-05T22:49:00.666Z,11.73
2019-01-05T22:52:01.449Z,12.03
2019-01-05T22:54:49.491Z,12.27
2019-01-05T22:57:36.498Z,11.40
2019-01-05T23:00:30.720Z,12.23
2019-01-05T23:03:18.877Z,11.70
2019-01-05T23:06:06.442Z,13.83
2019-01-05T23:08:55.139Z,12.40
2019-01-05T23:11:45.375Z,12.63
2019-01-05T23:14:48.673Z,12.33
2019-01-05T23:17:35.510Z,13.10
2019-01-05T23:20:22.631Z,12.90
2019-01-05T23:23:05.258Z,12.23
2019-01-05T23:25:52.266Z,11.50
2019-01-05T23:28:49.518Z,12.40
2019-01-05T23:31:34.009Z,12.17
2019-01-05T23:34:30.103Z,11.97
2019-01-05T23:37:17.334Z,10.13
2019-01-05T23:40:06.705Z,11.07
2019-01-05T23:42:57.801Z,10.60
2019-01-05T23:45:48.680Z,10.47
2019-01-05T23:48:33.885Z,10.53
2019-01-05T23:51:24.821Z,10.30
2019-01-05T23:54:12.118Z,11.53
2019-01-05T23:57:03.481Z,10.00
